Hauptseite
METAR-TAF:

METAR-TAF

Flughäfen :

Heeresflugplatz Niederstetten

Niederstetten, Deutschland

Breite: 49-24N, Länge: 009-58E, Höhe: 468 m

Beobachtung

Neuester Wetterbericht von vor 24 Minuten, um 17:20 UTC
Wind 5 kt aus Südwest
Temperatur -3°C
Luftfeuchtigkeit 93%
Luftdruck 1022 hPa
Sichtweite 10 km oder mehr
Leicht bewölkt in der Höhe von 3000 ft

METAR: ETHN 301720Z 22005KT 9999 FEW030 M03/M04 Q1022 BLU+BLU+

Zeit: 18:44 (17:44 UTC)

Prognose

Neuester Wetterbericht von vor 38 Minuten, um 17:06 UTC
Gültige Prognose vom 30 um 18 UTC bis 01 um 03 UTC
Wind 5 kt aus Süd/Südwest
Sichtweite 10 km oder mehr
Leicht bewölkt in der Höhe von 1000 ft
Übergehend zu
vom 30 um 23 UTC bis 30 um 24 UTC
Wind 7 kt aus Süd/Südwest
Sichtweite: 3000 m
Durchbrochene Bewölkung in der Höhe von 5000 ft
Gefrierender Regen

TAF: ETHN 301706Z 3018/0103 20005KT 9999 NSW FEW010 BECMG 3023/3024 21007KT 3000 FZRA BKN050

Wetterbeobachtungen und Prognosen von mehr als 4000 Flughäfen (METAR und TAF Bericht).

Die verfügbaren Stationen werden durch gelbe und rote Markierungen auf der Karte dargestellt.

Führen Sie die Maus auf sie, um den Namen der Station zu sehen.

Darauf klicken, um die Beobachtung von Wetterbeobachtungen und Prognosen zu sehen.

Um die Karte zu ändern : klicken Sie auf den grünen Tasten mit einem schwarzen Kreuz Zum Vergrößern, auf den grünen Button mit einem Gedankenstrich zu verkleinern, oder auf die grünen Pfeile für benachbarte Karten.


METAR-TAF: